Terminal Aerodrome Forecast
Issued by NWS Miami, FL

Current Version | Previous Version | Text Only | Print | Product List | Glossary On
Versions: 1 2 3 4 5 6 7 8 9 10 11 12 13 14 15 16 17 18 19 20 21
000
FTUS42 KMFL 021730
TAFPBI
TAF
KPBI 021730Z 0218/0318 13015KT P6SM SCT025 SCT030
     FM030200 14008KT P6SM SCT035
     FM031400 17012KT P6SM VCSH SCT030=

USA.gov is the U.S. government's official web portal to all federal, state and local government web resources and services.